Time;durP1;ratioP1;P1;durP2;ratioP2;P2;SDS_P1;SDS_P2;PMS_P1;PMS_P2;Temp;Humidity;BMP_temperature;BMP_pressure;BME280_temperature;BME280_humidity;BME280_pressure;Samples;Min_cycle;Max_cycle;Signal;HPM_P1;HPM_P2
2022/05/15 00:02:31;;;;;;;7.28;4.15;;;20.70;99.90;;;;;;5072737;28;20580;-77
2022/05/15 00:04:58;;;;;;;6.28;5.68;;;20.60;99.90;;;;;;5072796;28;20670;-78
2022/05/15 00:07:25;;;;;;;5.15;4.43;;;20.60;99.90;;;;;;5072643;28;20202;-75
2022/05/15 00:09:53;;;;;;;7.15;4.10;;;20.60;99.90;;;;;;5073033;28;20251;-77
2022/05/15 00:12:21;;;;;;;10.45;4.50;;;20.60;99.90;;;;;;5072754;28;20260;-75
2022/05/15 00:14:49;;;;;;;5.95;4.22;;;20.60;99.90;;;;;;5072973;28;20256;-79
2022/05/15 00:17:16;;;;;;;8.00;4.80;;;20.50;99.90;;;;;;5072670;28;20255;-78
2022/05/15 00:19:44;;;;;;;5.57;4.50;;;20.60;99.90;;;;;;5072200;28;20630;-77
2022/05/15 00:22:13;;;;;;;4.60;4.20;;;20.50;99.90;;;;;;5072576;28;20198;-77
2022/05/15 00:24:40;;;;;;;5.35;4.57;;;20.50;99.90;;;;;;5072084;28;20577;-75
2022/05/15 00:27:08;;;;;;;8.02;4.63;;;20.50;99.90;;;;;;5072412;28;20198;-78
2022/05/15 00:29:36;;;;;;;6.80;4.05;;;20.40;99.90;;;;;;5072146;28;20237;-77
2022/05/15 00:32:04;;;;;;;6.53;4.13;;;20.30;99.90;;;;;;5072488;28;20202;-75
2022/05/15 00:34:31;;;;;;;4.82;4.15;;;20.30;99.90;;;;;;5071971;28;20206;-76
2022/05/15 00:36:58;;;;;;;5.18;4.75;;;20.30;99.90;;;;;;5072295;28;20205;-75
2022/05/15 00:39:25;;;;;;;6.53;4.45;;;20.20;99.90;;;;;;5071910;28;20214;-76
2022/05/15 00:41:52;;;;;;;5.45;4.38;;;20.20;99.90;;;;;;5072225;28;20252;-76
2022/05/15 00:44:20;;;;;;;4.53;4.07;;;20.10;99.90;;;;;;5072606;28;20203;-75
2022/05/15 00:46:47;;;;;;;7.65;4.30;;;20.20;99.90;;;;;;5071716;28;20202;-78
2022/05/15 00:49:15;;;;;;;4.75;4.22;;;20.10;99.90;;;;;;5071952;28;20277;-81
2022/05/15 00:51:46;;;;;;;5.65;4.20;;;20.00;99.90;;;;;;5071401;28;20248;-79
2022/05/15 00:54:21;;;;;;;8.15;4.75;;;20.00;99.90;;;;;;5071764;28;20669;-76
2022/05/15 00:56:51;;;;;;;5.85;3.95;;;20.00;99.90;;;;;;5071404;28;20224;-78
2022/05/15 00:59:24;;;;;;;5.57;3.80;;;19.90;99.90;;;;;;5072099;28;20205;-78
2022/05/15 01:01:51;;;;;;;4.40;3.78;;;19.90;99.90;;;;;;5072014;28;20224;-77
2022/05/15 01:04:18;;;;;;;5.32;3.88;;;19.90;99.90;;;;;;5071507;28;20203;-77
2022/05/15 01:06:45;;;;;;;6.07;4.60;;;19.90;99.90;;;;;;5071571;28;20494;-77
2022/05/15 01:09:14;;;;;;;4.80;4.25;;;19.90;99.90;;;;;;5071703;28;20229;-74
2022/05/15 01:11:43;;;;;;;3.67;3.22;;;19.90;99.90;;;;;;5070660;28;20218;-75
2022/05/15 01:14:13;;;;;;;4.38;3.97;;;19.80;99.90;;;;;;5091234;28;20218;-77
2022/05/15 01:16:43;;;;;;;4.80;4.07;;;19.70;99.90;;;;;;5091217;28;20255;-76
2022/05/15 01:19:10;;;;;;;4.40;4.00;;;19.80;99.90;;;;;;5091962;28;20251;-77
2022/05/15 01:21:42;;;;;;;4.25;3.67;;;19.80;99.90;;;;;;5091440;28;20209;-76
2022/05/15 01:24:10;;;;;;;6.53;3.85;;;19.70;99.90;;;;;;5091715;28;20201;-77
2022/05/15 01:26:38;;;;;;;4.95;4.30;;;19.70;99.90;;;;;;5091165;28;20629;-77
2022/05/15 01:29:08;;;;;;;6.43;3.58;;;19.60;99.90;;;;;;5091536;28;20229;-75
2022/05/15 01:31:37;;;;;;;6.75;4.00;;;19.60;99.90;;;;;;5091180;28;20202;-77
2022/05/15 01:34:07;;;;;;;4.07;3.78;;;19.60;99.90;;;;;;5091676;28;20212;-77
2022/05/15 01:36:34;;;;;;;5.20;4.05;;;19.50;99.90;;;;;;5091559;28;20247;-78
2022/05/15 01:39:03;;;;;;;8.32;4.93;;;19.40;99.90;;;;;;5091247;28;20259;-76
2022/05/15 01:41:30;;;;;;;6.70;4.13;;;19.30;99.90;;;;;;5090946;28;20201;-75
2022/05/15 01:43:57;;;;;;;5.75;3.67;;;19.30;99.90;;;;;;5091307;28;20202;-78
2022/05/15 01:46:26;;;;;;;5.65;3.63;;;19.30;99.90;;;;;;5091487;28;20206;-75
2022/05/15 01:48:54;;;;;;;5.35;3.97;;;19.30;99.90;;;;;;5091386;28;20288;-79
2022/05/15 01:51:22;;;;;;;5.03;4.53;;;19.20;99.90;;;;;;5091499;28;20263;-76
2022/05/15 01:53:49;;;;;;;7.65;3.83;;;19.10;99.90;;;;;;5090740;28;20613;-76
2022/05/15 01:56:17;;;;;;;4.63;4.05;;;19.10;99.90;;;;;;5091120;28;20278;-79
2022/05/15 01:58:44;;;;;;;5.47;4.35;;;19.10;99.90;;;;;;5090818;28;20213;-77
2022/05/15 02:01:11;;;;;;;7.75;4.45;;;19.00;99.90;;;;;;5091266;28;20209;-75
2022/05/15 02:03:38;;;;;;;5.55;5.00;;;19.10;99.90;;;;;;5090772;28;20231;-77
2022/05/15 02:06:05;;;;;;;7.65;5.22;;;18.90;99.90;;;;;;5091142;28;20263;-79
2022/05/15 02:08:33;;;;;;;5.97;4.00;;;18.90;99.90;;;;;;5090453;28;20275;-78
2022/05/15 02:11:00;;;;;;;5.05;4.60;;;18.80;99.90;;;;;;5090885;28;20209;-78
2022/05/15 02:13:29;;;;;;;7.65;4.95;;;18.80;99.90;;;;;;5090596;28;20211;-77
2022/05/15 02:15:56;;;;;;;6.80;3.92;;;18.70;99.90;;;;;;5090493;28;20556;-74
2022/05/15 02:18:23;;;;;;;8.57;5.18;;;18.80;99.90;;;;;;5091222;28;20202;-78
2022/05/15 02:20:50;;;;;;;6.70;4.47;;;18.80;99.90;;;;;;5091215;28;20207;-75
2022/05/15 02:23:17;;;;;;;7.20;5.20;;;18.80;99.90;;;;;;5090623;28;20250;-76
2022/05/15 02:25:44;;;;;;;11.45;4.65;;;18.80;99.90;;;;;;5090707;28;20201;-76
2022/05/15 02:28:11;;;;;;;6.82;4.47;;;18.70;99.90;;;;;;5090655;28;20737;-74
2022/05/15 02:30:40;;;;;;;8.65;5.57;;;18.80;99.90;;;;;;5090577;28;20205;-78
2022/05/15 02:33:07;;;;;;;5.97;5.22;;;18.80;99.90;;;;;;5090980;28;20608;-81
2022/05/15 02:35:34;;;;;;;6.40;5.10;;;18.70;99.90;;;;;;5090240;28;20738;-78
2022/05/15 02:38:01;;;;;;;5.00;4.45;;;18.80;99.90;;;;;;5090510;28;20209;-80
2022/05/15 02:40:28;;;;;;;7.22;4.55;;;18.70;99.90;;;;;;5090511;28;20202;-75
2022/05/15 02:42:56;;;;;;;8.43;4.97;;;18.60;99.90;;;;;;5090954;28;20205;-75
2022/05/15 02:45:23;;;;;;;4.80;4.25;;;18.70;99.90;;;;;;5091014;28;20241;-76
2022/05/15 02:47:52;;;;;;;6.97;5.25;;;18.60;99.90;;;;;;5091121;28;20259;-75
2022/05/15 02:53:05;;;;;;;8.73;5.13;;;18.60;99.90;;;;;;5090311;28;20204;-75
2022/05/15 02:55:32;;;;;;;6.68;4.80;;;18.60;99.90;;;;;;5090293;28;20326;-77
2022/05/15 02:57:59;;;;;;;4.78;4.13;;;18.60;99.90;;;;;;5090715;28;20217;-79
2022/05/15 03:00:28;;;;;;;8.15;5.10;;;18.60;99.90;;;;;;5090093;28;20205;-76
2022/05/15 03:02:56;;;;;;;6.88;5.63;;;18.50;99.90;;;;;;5090386;28;20197;-76
2022/05/15 03:05:23;;;;;;;6.90;5.15;;;18.40;99.90;;;;;;5090927;28;20201;-76
2022/05/15 03:07:50;;;;;;;9.50;5.47;;;18.40;99.90;;;;;;5090727;28;20259;-75
2022/05/15 03:10:21;;;;;;;5.80;5.15;;;18.30;99.90;;;;;;5090416;28;20234;-77
2022/05/15 03:12:48;;;;;;;9.88;4.82;;;18.40;99.90;;;;;;5089996;28;20201;-76
2022/05/15 03:15:15;;;;;;;6.63;4.20;;;18.40;99.90;;;;;;5090483;28;20287;-75
2022/05/15 03:17:43;;;;;;;8.82;5.13;;;18.40;99.90;;;;;;5089921;28;20248;-77
2022/05/15 03:20:14;;;;;;;8.05;4.38;;;18.30;99.90;;;;;;5090300;28;20614;-77
2022/05/15 03:22:41;;;;;;;8.38;5.07;;;18.30;99.90;;;;;;5089728;28;20198;-78
2022/05/15 03:25:09;;;;;;;8.20;5.15;;;18.20;99.90;;;;;;5090349;28;20209;-79
2022/05/15 03:27:37;;;;;;;8.48;4.95;;;18.10;99.90;;;;;;5091648;28;20202;-78
2022/05/15 03:30:05;;;;;;;4.82;4.15;;;18.20;99.90;;;;;;5093500;28;20233;-75
2022/05/15 03:32:32;;;;;;;5.68;5.07;;;18.10;99.90;;;;;;5093293;28;20202;-76
2022/05/15 03:34:59;;;;;;;5.93;4.18;;;18.10;99.90;;;;;;5093824;28;20626;-75
2022/05/15 03:37:28;;;;;;;11.00;6.95;;;18.00;99.90;;;;;;5093362;28;20614;-77
2022/05/15 03:39:55;;;;;;;8.50;4.90;;;18.00;99.90;;;;;;5093418;28;20205;-75
2022/05/15 03:42:24;;;;;;;11.02;5.00;;;18.00;99.90;;;;;;5093888;28;20548;-77
2022/05/15 03:44:51;;;;;;;6.88;4.63;;;18.00;99.90;;;;;;5093958;28;20205;-78
2022/05/15 03:47:19;;;;;;;5.80;5.25;;;17.90;99.90;;;;;;5093968;28;20275;-78
2022/05/15 03:49:47;;;;;;;6.72;4.82;;;17.90;99.90;;;;;;5092796;28;20255;-78
2022/05/15 03:52:16;;;;;;;9.45;5.28;;;17.90;99.90;;;;;;5093370;28;20565;-79
2022/05/15 03:54:44;;;;;;;5.10;4.45;;;17.90;99.90;;;;;;5092996;28;20746;-74
2022/05/15 03:57:11;;;;;;;5.82;4.32;;;17.90;99.90;;;;;;5093300;28;20202;-80
2022/05/15 03:59:40;;;;;;;5.90;5.00;;;17.80;99.90;;;;;;5092964;28;20665;-79
2022/05/15 04:02:10;;;;;;;8.65;4.90;;;17.90;99.90;;;;;;5093207;28;20621;-78
2022/05/15 04:04:37;;;;;;;5.68;4.85;;;17.80;99.90;;;;;;5092583;28;20305;-78
2022/05/15 04:07:05;;;;;;;8.15;5.18;;;17.80;99.90;;;;;;5093053;28;20205;-74
2022/05/15 04:09:36;;;;;;;9.50;5.25;;;17.80;99.90;;;;;;5092613;28;20229;-78
2022/05/15 04:12:05;;;;;;;13.00;4.72;;;17.70;99.90;;;;;;5093113;28;20577;-77
2022/05/15 04:14:32;;;;;;;14.60;6.10;;;17.80;99.90;;;;;;5092779;28;20197;-75
2022/05/15 04:16:59;;;;;;;6.45;4.50;;;17.70;99.90;;;;;;5092877;28;20540;-77
2022/05/15 04:19:26;;;;;;;9.10;5.25;;;17.70;99.90;;;;;;5092380;28;20201;-77
2022/05/15 04:21:53;;;;;;;7.50;4.93;;;17.80;99.90;;;;;;5093049;28;20251;-76
2022/05/15 04:24:21;;;;;;;5.20;4.57;;;17.70;99.90;;;;;;5092988;28;20255;-78
2022/05/15 04:26:48;;;;;;;7.32;4.60;;;17.70;99.90;;;;;;5092311;28;20665;-77
2022/05/15 04:29:17;;;;;;;7.50;5.35;;;17.70;99.90;;;;;;5092563;28;20707;-78
2022/05/15 04:31:44;;;;;;;8.48;4.80;;;17.70;99.90;;;;;;5092403;28;20209;-74
2022/05/15 04:34:11;;;;;;;6.45;4.55;;;17.70;99.90;;;;;;5092468;28;20201;-75
2022/05/15 04:36:38;;;;;;;6.70;5.70;;;17.70;99.90;;;;;;5092097;28;20686;-74
2022/05/15 04:39:06;;;;;;;10.02;5.22;;;17.80;99.90;;;;;;5092060;28;20341;-77
2022/05/15 04:41:34;;;;;;;10.52;5.07;;;17.70;99.90;;;;;;5092328;28;20202;-76
2022/05/15 04:44:01;;;;;;;7.03;4.75;;;17.80;99.90;;;;;;5092380;28;20251;-73
2022/05/15 04:46:30;;;;;;;7.35;4.90;;;17.80;99.90;;;;;;5092155;28;20258;-73
2022/05/15 04:48:57;;;;;;;8.40;4.63;;;17.80;99.90;;;;;;5092005;28;20213;-74
2022/05/15 04:51:24;;;;;;;6.97;5.80;;;17.80;99.90;;;;;;5092205;28;20197;-74
2022/05/15 04:53:52;;;;;;;5.13;4.20;;;17.80;99.90;;;;;;5092773;28;20197;-74
2022/05/15 04:56:19;;;;;;;6.28;5.68;;;17.80;99.90;;;;;;5092309;28;20254;-78
2022/05/15 04:58:46;;;;;;;8.00;5.47;;;17.80;99.90;;;;;;5091967;28;20209;-75
2022/05/15 05:01:13;;;;;;;10.90;7.63;;;17.90;99.90;;;;;;5092325;28;20635;-74
2022/05/15 05:03:42;;;;;;;6.50;5.30;;;17.90;99.90;;;;;;5090934;28;20209;-74
2022/05/15 05:06:09;;;;;;;9.32;6.13;;;18.00;99.90;;;;;;5092041;28;20201;-74
2022/05/15 05:08:36;;;;;;;7.15;5.40;;;18.00;99.90;;;;;;5091884;28;20205;-74
2022/05/15 05:11:03;;;;;;;11.77;4.97;;;18.00;99.90;;;;;;5091791;28;20782;-74
2022/05/15 05:13:30;;;;;;;8.40;4.63;;;18.00;99.90;;;;;;5091362;28;20610;-73
2022/05/15 05:15:57;;;;;;;6.00;4.72;;;18.00;99.90;;;;;;5091985;28;20202;-75
2022/05/15 05:18:24;;;;;;;7.65;4.53;;;18.00;99.90;;;;;;5091357;28;20201;-75
2022/05/15 05:20:52;;;;;;;6.70;5.18;;;18.00;99.90;;;;;;5092070;28;20202;-77
2022/05/15 05:23:19;;;;;;;13.63;5.80;;;18.10;99.90;;;;;;5092350;28;20621;-75
2022/05/15 05:25:46;;;;;;;6.40;4.30;;;18.10;99.90;;;;;;5091264;28;20201;-73
2022/05/15 05:28:13;;;;;;;9.27;5.25;;;18.10;99.90;;;;;;5091582;28;20463;-77
2022/05/15 05:30:40;;;;;;;8.90;4.57;;;18.10;99.90;;;;;;5091147;28;20236;-75
2022/05/15 05:33:07;;;;;;;8.20;5.38;;;18.10;99.90;;;;;;5091095;28;20740;-73
2022/05/15 05:35:35;;;;;;;9.77;6.53;;;18.10;99.90;;;;;;5090860;28;20557;-75
2022/05/15 05:38:05;;;;;;;9.98;4.72;;;18.10;99.90;;;;;;5091749;28;20633;-73
2022/05/15 05:40:32;;;;;;;5.70;4.45;;;18.20;99.90;;;;;;5091164;28;20197;-76
2022/05/15 05:43:00;;;;;;;5.80;4.85;;;18.20;99.90;;;;;;5091649;28;20263;-73
2022/05/15 05:45:26;;;;;;;11.50;6.45;;;18.30;99.90;;;;;;5090592;28;20208;-76
2022/05/15 05:47:55;;;;;;;6.47;5.03;;;18.30;99.90;;;;;;5091298;28;20201;-73
2022/05/15 05:50:25;;;;;;;6.60;4.40;;;18.30;99.90;;;;;;5090539;28;20316;-74
2022/05/15 05:52:52;;;;;;;9.70;5.55;;;18.40;99.90;;;;;;5091632;28;20612;-75
2022/05/15 05:55:21;;;;;;;9.32;4.53;;;18.50;99.90;;;;;;5091549;28;20200;-76
2022/05/15 05:57:48;;;;;;;7.68;5.90;;;18.50;99.90;;;;;;5090750;28;20718;-75
2022/05/15 06:00:19;;;;;;;5.47;4.97;;;18.60;99.90;;;;;;5090939;28;20251;-72
2022/05/15 06:02:46;;;;;;;10.63;4.95;;;18.60;99.90;;;;;;5090849;28;20258;-75
2022/05/15 06:05:12;;;;;;;7.43;4.50;;;18.70;99.90;;;;;;5091141;28;20210;-72
2022/05/15 06:07:39;;;;;;;6.85;5.57;;;18.80;99.90;;;;;;5090665;28;20657;-74
2022/05/15 06:10:08;;;;;;;9.43;5.78;;;18.90;99.90;;;;;;5090988;28;20275;-75
2022/05/15 06:12:40;;;;;;;7.38;5.50;;;19.00;99.90;;;;;;5090661;28;20247;-74
2022/05/15 06:15:08;;;;;;;9.18;5.43;;;19.00;99.90;;;;;;5090494;28;20208;-71
2022/05/15 06:17:36;;;;;;;9.15;5.03;;;19.10;99.90;;;;;;5090693;28;20201;-74
2022/05/15 06:20:07;;;;;;;11.00;6.57;;;19.10;99.90;;;;;;5091020;28;20205;-77
2022/05/15 06:22:34;;;;;;;11.23;6.10;;;19.10;99.90;;;;;;5090594;28;20270;-73
2022/05/15 06:25:01;;;;;;;11.65;5.55;;;19.10;99.90;;;;;;5090825;28;20201;-74
2022/05/15 06:27:28;;;;;;;11.02;6.75;;;19.30;99.90;;;;;;5090761;28;20210;-76
2022/05/15 06:29:57;;;;;;;10.07;5.35;;;19.40;99.90;;;;;;5090538;28;20278;-73
2022/05/15 06:32:26;;;;;;;10.68;6.20;;;19.30;99.90;;;;;;5090858;28;20581;-73
2022/05/15 06:34:53;;;;;;;8.85;5.50;;;19.40;99.90;;;;;;5091199;28;20228;-75
2022/05/15 06:37:20;;;;;;;5.75;5.10;;;19.60;99.90;;;;;;5091132;28;20258;-77
2022/05/15 06:39:47;;;;;;;7.20;5.60;;;19.60;99.90;;;;;;5090136;28;20198;-77
2022/05/15 06:42:14;;;;;;;8.02;5.15;;;19.60;99.90;;;;;;5091006;28;20209;-74
2022/05/15 06:44:41;;;;;;;8.20;5.00;;;19.60;99.90;;;;;;5090141;28;20254;-76
2022/05/15 06:47:10;;;;;;;9.95;6.32;;;19.70;99.90;;;;;;5090661;28;20250;-79
2022/05/15 06:49:37;;;;;;;12.38;5.78;;;19.80;99.90;;;;;;5090049;28;20737;-76
2022/05/15 06:52:04;;;;;;;6.70;5.15;;;20.10;99.90;;;;;;5090361;28;20201;-74
2022/05/15 06:54:31;;;;;;;8.80;6.72;;;20.10;99.90;;;;;;5090185;28;20205;-76
2022/05/15 06:59:42;;;;;;;9.05;5.72;;;20.00;99.90;;;;;;5078531;28;20205;-79
2022/05/15 07:02:10;;;;;;;9.73;5.05;;;19.90;99.90;;;;;;5093570;28;20202;-73
2022/05/15 07:04:37;;;;;;;10.65;5.60;;;20.20;99.90;;;;;;5093963;28;20628;-75
2022/05/15 07:07:04;;;;;;;11.75;5.22;;;20.40;99.90;;;;;;5094565;28;20201;-78
2022/05/15 07:09:32;;;;;;;5.45;4.80;;;20.40;99.90;;;;;;5093813;28;20198;-78
2022/05/15 07:11:58;;;;;;;10.48;5.70;;;20.50;99.90;;;;;;5094074;28;20713;-75
2022/05/15 07:14:25;;;;;;;10.93;5.80;;;20.70;99.90;;;;;;5093772;28;20202;-76
2022/05/15 07:16:53;;;;;;;9.48;5.00;;;20.60;99.90;;;;;;5094602;28;20198;-78
2022/05/15 07:19:22;;;;;;;7.97;5.47;;;20.70;99.90;;;;;;5094353;28;20652;-78
2022/05/15 07:21:49;;;;;;;9.88;5.43;;;20.90;99.90;;;;;;5094092;28;20282;-79
2022/05/15 07:24:16;;;;;;;5.82;5.22;;;21.30;99.90;;;;;;5094334;28;20303;-75
2022/05/15 07:26:45;;;;;;;10.35;5.35;;;21.30;99.90;;;;;;5093733;28;20747;-76
2022/05/15 07:29:12;;;;;;;20.27;6.45;;;21.40;99.90;;;;;;5093704;28;20633;-76
2022/05/15 07:31:39;;;;;;;8.35;5.35;;;21.30;99.90;;;;;;5093295;28;20229;-77
2022/05/15 07:34:07;;;;;;;5.10;4.38;;;21.30;99.90;;;;;;5093861;28;20201;-78
2022/05/15 07:36:35;;;;;;;6.70;4.60;;;20.90;99.90;;;;;;5093398;28;20665;-78
2022/05/15 07:39:03;;;;;;;10.60;5.47;;;21.00;99.90;;;;;;5093559;28;20726;-76
2022/05/15 07:41:30;;;;;;;6.47;4.90;;;21.10;99.90;;;;;;5093218;28;20247;-78
2022/05/15 07:43:57;;;;;;;7.88;4.97;;;21.30;99.90;;;;;;5093698;28;20251;-77
2022/05/15 07:46:24;;;;;;;8.15;5.00;;;21.30;99.90;;;;;;5093719;28;20721;-77
2022/05/15 07:48:54;;;;;;;11.88;5.63;;;21.50;99.90;;;;;;5093894;28;20209;-74
2022/05/15 07:51:21;;;;;;;7.90;5.72;;;21.50;99.90;;;;;;5093839;28;20243;-77
2022/05/15 07:53:49;;;;;;;7.00;5.72;;;21.40;99.90;;;;;;5093227;28;20201;-78
2022/05/15 07:56:16;;;;;;;7.18;5.00;;;21.60;99.90;;;;;;5093295;28;20289;-76
2022/05/15 07:58:43;;;;;;;6.30;4.40;;;21.60;99.90;;;;;;5092929;28;20206;-74
2022/05/15 08:01:10;;;;;;;7.35;5.22;;;21.60;99.90;;;;;;5093221;28;20205;-76
2022/05/15 08:03:42;;;;;;;10.07;6.05;;;21.90;99.90;;;;;;5093231;28;20610;-74
2022/05/15 08:08:56;;;;;;;10.02;4.65;;;21.50;99.90;;;;;;5093232;28;20262;-77
2022/05/15 08:11:26;;;;;;;11.77;5.90;;;21.70;99.90;;;;;;5092662;28;20581;-74
2022/05/15 08:13:53;;;;;;;6.30;4.82;;;21.70;99.90;;;;;;5092510;28;20240;-75
2022/05/15 08:16:20;;;;;;;9.52;5.78;;;21.70;99.90;;;;;;5093223;28;20201;-77
2022/05/15 08:24:17;;;;;;;13.57;5.38;;;22.00;99.90;;;;;;5093030;28;20208;-75
2022/05/15 08:26:45;;;;;;;9.55;5.93;;;22.30;99.90;;;;;;5092147;28;20251;-78
2022/05/15 08:29:12;;;;;;;10.85;5.63;;;22.70;99.90;;;;;;5092969;28;20197;-78
2022/05/15 08:31:40;;;;;;;6.93;5.07;;;22.70;99.90;;;;;;5092227;28;20225;-75
2022/05/15 08:34:07;;;;;;;10.30;5.82;;;22.00;99.90;;;;;;5092694;28;20296;-74
2022/05/15 08:36:36;;;;;;;11.07;5.85;;;22.20;99.90;;;;;;5092261;28;20673;-78
2022/05/15 08:39:04;;;;;;;8.38;4.80;;;22.20;99.90;;;;;;5092733;28;20281;-76
2022/05/15 08:41:44;;;;;;;7.03;4.50;;;22.20;99.90;;;;;;5091992;28;20205;-76
2022/05/15 08:44:14;;;;;;;8.27;5.25;;;22.40;99.90;;;;;;5092444;28;20202;-76
2022/05/15 08:46:52;;;;;;;7.75;4.78;;;22.70;99.90;;;;;;5092017;28;20205;-75
2022/05/15 08:49:25;;;;;;;7.47;5.00;;;22.60;99.90;;;;;;5092625;28;20326;-75
2022/05/15 08:51:58;;;;;;;7.00;5.30;;;22.70;99.90;;;;;;5092401;28;20236;-77
2022/05/15 08:54:28;;;;;;;6.80;4.50;;;23.10;99.90;;;;;;5092006;28;20284;-75
2022/05/15 08:56:56;;;;;;;6.65;4.40;;;23.10;99.90;;;;;;5092335;28;20208;-75
2022/05/15 08:59:28;;;;;;;9.88;5.13;;;23.10;99.90;;;;;;5092021;28;20201;-74
2022/05/15 09:01:58;;;;;;;9.43;4.82;;;23.70;99.90;;;;;;5091891;28;20205;-74
2022/05/15 09:04:26;;;;;;;8.38;5.10;;;23.70;99.90;;;;;;5091663;28;20676;-74
2022/05/15 09:07:06;;;;;;;7.75;4.47;;;24.10;99.90;;;;;;5092362;28;20615;-74
2022/05/15 09:09:45;;;;;;;9.05;5.13;;;25.30;99.90;;;;;;5091292;28;20597;-72
2022/05/15 09:12:17;;;;;;;13.27;5.20;;;25.00;99.90;;;;;;5091906;28;20274;-72
2022/05/15 09:15:00;;;;;;;6.20;4.15;;;24.50;99.90;;;;;;5091234;28;20259;-75
2022/05/15 09:17:34;;;;;;;8.38;5.28;;;25.50;99.90;;;;;;5091281;28;20209;-72
2022/05/15 09:20:06;;;;;;;5.68;4.03;;;24.80;99.90;;;;;;5091780;28;20240;-74
2022/05/15 09:22:38;;;;;;;8.50;4.50;;;25.50;99.90;;;;;;5091384;28;20209;-73
2022/05/15 09:25:12;;;;;;;7.90;4.03;;;25.70;99.90;;;;;;5091548;28;20201;-76
2022/05/15 09:27:58;;;;;;;6.97;4.10;;;27.50;99.90;;;;;;5091241;28;20209;-76
2022/05/15 09:30:32;;;;;;;9.07;4.88;;;25.60;99.90;;;;;;5090996;28;20296;-76
2022/05/15 09:32:59;;;;;;;8.48;5.15;;;25.70;99.90;;;;;;5091518;28;20208;-72
2022/05/15 09:35:33;;;;;;;5.55;4.60;;;25.60;99.90;;;;;;5091123;28;20205;-74
2022/05/15 09:43:32;;;;;;;10.85;5.13;;;28.00;99.90;;;;;;5090819;28;20204;-74
2022/05/15 09:46:06;;;;;;;6.28;4.10;;;27.80;99.90;;;;;;5091242;28;20663;-73
2022/05/15 09:48:38;;;;;;;7.45;4.97;;;27.00;99.90;;;;;;5090718;28;20205;-75
2022/05/15 09:51:10;;;;;;;10.95;4.30;;;26.00;99.90;;;;;;5091234;28;20784;-73
2022/05/15 09:53:43;;;;;;;8.77;4.20;;;26.60;99.90;;;;;;5090535;28;20677;-75
2022/05/15 09:56:24;;;;;;;8.00;4.35;;;26.80;99.90;;;;;;5091298;28;20216;-74
2022/05/15 09:58:57;;;;;;;8.48;4.68;;;27.40;99.90;;;;;;5091496;28;20569;-77
2022/05/15 10:01:28;;;;;;;6.75;4.00;;;27.10;99.90;;;;;;5091191;28;20205;-78
2022/05/15 10:03:57;;;;;;;4.40;4.00;;;28.30;99.90;;;;;;5090837;28;20629;-76
2022/05/15 10:06:26;;;;;;;9.10;4.35;;;29.00;99.90;;;;;;5090802;28;20205;-76
2022/05/15 10:09:12;;;;;;;10.15;5.28;;;28.50;99.90;;;;;;5091329;28;20201;-75
2022/05/15 10:11:43;;;;;;;6.18;3.63;;;28.60;99.90;;;;;;5090425;28;20220;-79
2022/05/15 10:14:26;;;;;;;8.73;4.43;;;27.70;99.90;;;;;;5091026;28;20288;-77
2022/05/15 10:16:56;;;;;;;8.85;5.22;;;28.40;99.90;;;;;;5090946;28;20201;-75
2022/05/15 10:19:32;;;;;;;7.35;4.65;;;30.80;99.90;;;;;;5091346;28;20198;-76
2022/05/15 10:22:21;;;;;;;7.93;4.32;;;29.60;99.90;;;;;;5090532;28;20661;-74
2022/05/15 10:24:49;;;;;;;10.20;4.93;;;31.30;99.90;;;;;;5090739;28;20201;-77
2022/05/15 10:27:22;;;;;;;8.20;4.20;;;29.80;99.90;;;;;;5090694;28;20753;-75
2022/05/15 10:29:56;;;;;;;6.07;3.65;;;28.80;99.90;;;;;;5090600;28;20296;-75
2022/05/15 10:32:29;;;;;;;5.38;3.97;;;27.30;99.90;;;;;;5090916;28;20228;-73
2022/05/15 10:34:58;;;;;;;7.28;4.20;;;26.30;99.90;;;;;;5090663;28;20274;-74
2022/05/15 10:37:51;;;;;;;5.93;3.70;;;26.30;99.90;;;;;;5093999;28;20213;-74
2022/05/15 10:40:23;;;;;;;5.28;4.07;;;25.90;99.90;;;;;;5094995;28;20205;-76
2022/05/15 10:43:03;;;;;;;7.25;3.80;;;26.10;99.90;;;;;;5095206;28;20202;-76
2022/05/15 10:45:38;;;;;;;13.30;5.57;;;25.90;99.90;;;;;;5094559;28;20582;-73
2022/05/15 10:48:23;;;;;;;6.00;3.63;;;26.20;99.90;;;;;;5094920;28;20201;-75
2022/05/15 10:50:56;;;;;;;15.20;7.00;;;26.40;99.90;;;;;;5094581;28;20206;-72
2022/05/15 10:59:43;;;;;;;8.05;5.03;;;26.20;99.90;;;;;;5094163;28;20200;-77
2022/05/15 11:02:41;;;;;;;6.55;3.72;;;25.70;99.90;;;;;;5094319;28;20698;-74
2022/05/15 11:05:14;;;;;;;8.00;4.25;;;25.60;99.90;;;;;;5094213;28;20263;-73
2022/05/15 11:07:48;;;;;;;6.53;4.15;;;25.80;99.90;;;;;;5093936;28;20201;-74
2022/05/15 11:10:24;;;;;;;10.25;6.80;;;26.50;99.90;;;;;;5094281;28;20205;-77
2022/05/15 11:13:01;;;;;;;6.55;4.82;;;26.80;99.90;;;;;;5094487;28;20233;-77
2022/05/15 11:15:42;;;;;;;8.18;4.57;;;26.60;99.90;;;;;;5093763;28;20209;-75
2022/05/15 11:18:29;;;;;;;10.27;3.97;;;26.30;99.90;;;;;;5094165;28;20254;-76
2022/05/15 11:21:01;;;;;;;6.50;4.18;;;26.20;99.90;;;;;;5093916;28;20623;-76
2022/05/15 11:23:33;;;;;;;8.50;3.72;;;26.10;99.90;;;;;;5093771;28;20205;-74
2022/05/15 11:26:05;;;;;;;6.82;4.20;;;26.20;99.90;;;;;;5093901;28;20575;-76
2022/05/15 11:28:39;;;;;;;7.90;4.05;;;26.20;99.90;;;;;;5093557;28;20703;-80
2022/05/15 11:31:10;;;;;;;6.18;3.60;;;26.40;99.90;;;;;;5093843;28;20274;-77
2022/05/15 11:33:53;;;;;;;9.68;4.72;;;26.60;99.90;;;;;;5093296;28;20281;-76
2022/05/15 11:36:36;;;;;;;13.32;4.72;;;26.00;99.90;;;;;;5094109;28;20197;-74
2022/05/15 11:39:22;;;;;;;4.85;3.65;;;25.80;99.90;;;;;;5093677;28;20293;-76
2022/05/15 11:42:14;;;;;;;10.52;3.60;;;26.40;99.90;;;;;;5093495;28;20263;-78
2022/05/15 11:44:44;;;;;;;5.65;3.63;;;26.50;99.90;;;;;;5088637;28;20212;-74
2022/05/15 11:47:32;;;;;;;7.60;3.72;;;25.70;99.90;;;;;;5092476;28;20301;-76
2022/05/15 11:50:29;;;;;;;6.47;3.58;;;25.60;99.90;;;;;;5093404;28;20209;-75
2022/05/15 11:53:06;;;;;;;9.30;3.63;;;26.40;99.90;;;;;;5093208;28;20677;-75
2022/05/15 11:55:46;;;;;;;4.45;3.22;;;27.00;99.90;;;;;;5093077;28;20255;-75
2022/05/15 11:58:36;;;;;;;7.93;3.95;;;26.80;99.90;;;;;;5093519;28;20270;-77
2022/05/15 12:01:13;;;;;;;9.60;3.83;;;27.10;99.90;;;;;;5093061;28;20208;-77
2022/05/15 12:03:50;;;;;;;8.07;3.42;;;27.00;99.90;;;;;;5092725;28;20215;-74
2022/05/15 12:06:22;;;;;;;8.55;3.00;;;27.00;99.90;;;;;;5093379;28;20236;-73
2022/05/15 12:08:53;;;;;;;4.60;3.22;;;27.00;99.90;;;;;;5093148;28;20302;-74
2022/05/15 12:11:33;;;;;;;6.18;3.90;;;27.00;99.90;;;;;;5093144;28;20205;-72
2022/05/15 12:14:30;;;;;;;8.43;3.30;;;27.30;99.90;;;;;;5093205;28;20610;-73
2022/05/15 12:17:01;;;;;;;4.38;3.33;;;27.80;99.90;;;;;;5092914;28;20292;-76
2022/05/15 12:19:30;;;;;;;5.63;4.00;;;27.00;99.90;;;;;;5092661;28;20270;-76
2022/05/15 12:22:01;;;;;;;9.23;4.30;;;26.20;99.90;;;;;;5092932;28;20738;-74
2022/05/15 12:24:34;;;;;;;5.50;4.00;;;25.70;99.90;;;;;;5092583;28;20398;-74
2022/05/15 12:27:12;;;;;;;10.48;3.25;;;25.80;99.90;;;;;;5092775;28;20292;-73
2022/05/15 12:29:49;;;;;;;4.90;3.80;;;25.90;99.90;;;;;;5092267;28;20201;-77
2022/05/15 12:32:22;;;;;;;9.77;3.65;;;26.30;99.90;;;;;;5092315;28;20716;-77
2022/05/15 12:34:51;;;;;;;8.73;3.17;;;26.20;99.90;;;;;;5092558;28;20206;-76
2022/05/15 12:37:22;;;;;;;8.20;4.25;;;26.90;99.90;;;;;;5093054;28;20205;-75
2022/05/15 12:39:52;;;;;;;9.88;4.55;;;27.10;99.90;;;;;;5092159;28;20673;-74
2022/05/15 12:42:23;;;;;;;6.68;3.20;;;26.90;99.90;;;;;;5092844;28;20262;-73
2022/05/15 12:45:03;;;;;;;8.45;3.70;;;26.70;99.90;;;;;;5092480;28;20677;-75
2022/05/15 12:47:33;;;;;;;5.47;3.05;;;26.40;99.90;;;;;;5091744;28;20660;-75
2022/05/15 12:50:03;;;;;;;13.48;4.40;;;26.60;99.90;;;;;;5092161;28;20224;-74
2022/05/15 12:52:34;;;;;;;6.43;2.78;;;26.40;99.90;;;;;;5091796;28;20255;-74
2022/05/15 12:55:03;;;;;;;3.47;3.17;;;26.10;99.90;;;;;;5092256;28;20206;-75
2022/05/15 12:57:30;;;;;;;5.43;2.90;;;26.20;99.90;;;;;;5091863;28;20673;-77
2022/05/15 12:59:58;;;;;;;8.18;3.38;;;26.40;99.90;;;;;;5091880;28;20198;-78
2022/05/15 13:02:36;;;;;;;6.13;3.60;;;26.50;99.90;;;;;;5091766;28;20202;-76
2022/05/15 13:05:05;;;;;;;6.47;2.97;;;26.30;99.90;;;;;;5092088;28;20207;-74
2022/05/15 13:07:41;;;;;;;6.40;3.38;;;26.40;99.90;;;;;;5091803;28;20201;-76
2022/05/15 13:10:11;;;;;;;6.60;3.22;;;26.90;99.90;;;;;;5092121;28;20593;-77
2022/05/15 13:12:50;;;;;;;8.32;4.05;;;27.00;99.90;;;;;;5091669;28;20237;-75
2022/05/15 13:15:21;;;;;;;5.22;3.35;;;27.30;99.90;;;;;;5091532;28;20292;-75
2022/05/15 13:17:50;;;;;;;9.98;2.78;;;27.00;99.90;;;;;;5092067;28;20569;-74
2022/05/15 13:20:20;;;;;;;7.88;3.83;;;26.60;99.90;;;;;;5091985;28;20247;-75
2022/05/15 13:22:49;;;;;;;5.38;3.33;;;26.90;99.90;;;;;;5091212;28;20728;-75
2022/05/15 13:25:23;;;;;;;3.25;2.95;;;27.20;99.90;;;;;;5091802;28;20206;-73
2022/05/15 13:27:50;;;;;;;6.20;3.45;;;27.50;99.90;;;;;;5091550;28;20292;-75